Date,TemperatureHighF,TemperatureAvgF,TemperatureLowF,DewpointHighF,DewpointAvgF,DewpointLowF,HumidityHigh,HumidityAvg,HumidityLow,PressureMaxIn,PressureMinIn,WindSpeedMaxMPH,WindSpeedAvgMPH,GustSpeedMaxMPH,PrecipitationSumIn
2013-6-1,77.0,59.7,38.0,41.0,36.9,33.0,83,48,23,30.22,29.93,4,1,14,0.00
2013-6-2,75.0,60.5,46.0,46.0,39.9,32.0,79,50,21,29.93,29.75,7,1,24,0.00
2013-6-3,64.0,55.9,48.0,38.0,36.8,36.0,64,49,35,29.96,29.91,1,0,10,0.00
2013-6-4,81.0,62.3,42.0,43.0,38.8,36.0,83,47,23,30.06,29.95,4,1,11,0.00
2013-6-6,86.0,76.3,68.0,48.0,46.0,44.0,48,35,27,29.94,29.89,0,0,4,0.00
2013-6-7,89.0,69.1,52.0,50.0,45.9,39.0,80,49,19,30.00,29.85,6,1,19,0.00
2013-6-8,86.0,68.2,51.0,48.0,43.4,37.0,79,46,18,30.04,29.92,8,1,16,0.00
2013-6-9,89.0,77.6,51.0,49.0,46.7,44.0,76,36,23,30.00,29.75,6,1,14,0.00
2013-6-10,89.0,72.1,54.0,50.0,46.0,34.0,80,45,19,29.81,29.58,7,1,17,0.00
2013-6-11,83.0,68.5,53.0,49.0,43.0,37.0,73,42,23,29.86,29.69,6,1,20,0.00
2013-6-12,80.0,64.1,46.0,46.0,40.0,34.0,82,47,20,29.95,29.80,7,1,18,0.00
2013-6-13,69.0,60.1,49.0,47.0,40.2,33.0,85,50,27,30.04,29.86,5,1,19,0.11
2013-6-14,70.0,54.5,43.0,44.0,40.0,37.0,92,62,31,30.21,30.04,3,0,10,0.34
2013-6-15,83.0,57.0,37.0,47.0,37.8,33.0,92,56,19,30.09,29.90,2,0,9,0.00
2013-6-16,91.0,66.9,43.0,44.0,39.2,33.0,81,43,15,30.03,29.89,4,0,11,0.00
2013-6-17,90.0,67.3,48.0,44.0,40.2,37.0,73,42,16,30.04,29.80,7,1,14,0.00
2013-6-21,64.0,64.0,64.0,39.0,39.0,39.0,39,39,39,30.02,30.02,6,6,14,0.00
2013-6-22,70.0,67.8,58.0,43.0,42.8,42.0,56,41,38,29.96,29.93,0,0,4,0.00
2013-6-23,81.0,61.9,42.0,48.0,43.6,39.0,90,56,27,29.96,29.61,2,0,6,0.00
2013-6-24,68.0,60.1,55.0,59.0,54.0,47.0,94,82,50,29.82,29.64,4,0,17,0.77
2013-6-25,64.0,57.7,53.0,59.0,55.0,51.0,95,91,71,29.96,29.81,2,0,4,0.56
2013-6-26,76.0,61.3,57.0,63.0,57.5,56.0,96,89,54,30.07,29.96,4,0,7,0.83
2013-6-27,92.0,80.4,68.0,52.0,48.1,44.0,53,34,20,30.18,30.11,0,0,6,0.00
2013-6-28,103.0,72.1,52.0,57.0,50.7,47.0,87,54,16,30.25,29.99,2,0,7,0.00
2013-6-29,101.0,77.6,60.0,61.0,56.4,53.0,82,54,23,30.08,29.87,1,0,10,0.00
2013-6-30,104.0,80.5,59.0,62.0,57.1,52.0,88,51,21,30.09,29.91,2,0,5,0.00